sensor_id;sensor_type;location;lat;lon;timestamp;temperature;humidity
21602;DHT22;10963;50.934;4.668;2022-12-07T00:01:40;6.80;99.90
21602;DHT22;10963;50.934;4.668;2022-12-07T00:04:13;6.90;99.90
21602;DHT22;10963;50.934;4.668;2022-12-07T00:06:42;6.80;99.90
21602;DHT22;10963;50.934;4.668;2022-12-07T00:09:15;6.90;99.90
21602;DHT22;10963;50.934;4.668;2022-12-07T00:11:41;6.90;99.90
21602;DHT22;10963;50.934;4.668;2022-12-07T00:14:12;6.70;99.90
21602;DHT22;10963;50.934;4.668;2022-12-07T00:16:41;6.60;99.90
21602;DHT22;10963;50.934;4.668;2022-12-07T00:19:09;6.50;99.90
21602;DHT22;10963;50.934;4.668;2022-12-07T00:21:38;6.50;99.90
21602;DHT22;10963;50.934;4.668;2022-12-07T00:24:07;6.40;99.90
21602;DHT22;10963;50.934;4.668;2022-12-07T00:26:40;6.30;99.90
21602;DHT22;10963;50.934;4.668;2022-12-07T00:29:17;6.30;99.90
21602;DHT22;10963;50.934;4.668;2022-12-07T00:31:43;6.20;99.90
21602;DHT22;10963;50.934;4.668;2022-12-07T00:34:16;6.10;99.90
21602;DHT22;10963;50.934;4.668;2022-12-07T00:36:43;6.10;99.90
21602;DHT22;10963;50.934;4.668;2022-12-07T00:39:09;6.00;99.90
21602;DHT22;10963;50.934;4.668;2022-12-07T00:41:34;6.00;99.90
21602;DHT22;10963;50.934;4.668;2022-12-07T00:44:00;6.00;99.90
21602;DHT22;10963;50.934;4.668;2022-12-07T00:46:26;5.90;99.90
21602;DHT22;10963;50.934;4.668;2022-12-07T00:48:53;6.00;99.90
21602;DHT22;10963;50.934;4.668;2022-12-07T00:51:23;6.00;99.90
21602;DHT22;10963;50.934;4.668;2022-12-07T00:53:52;6.00;99.90
21602;DHT22;10963;50.934;4.668;2022-12-07T00:56:21;6.00;99.90
21602;DHT22;10963;50.934;4.668;2022-12-07T00:58:54;6.10;99.90
21602;DHT22;10963;50.934;4.668;2022-12-07T01:01:21;6.20;99.90
21602;DHT22;10963;50.934;4.668;2022-12-07T01:03:47;6.20;99.90
21602;DHT22;10963;50.934;4.668;2022-12-07T01:06:18;6.20;99.90
21602;DHT22;10963;50.934;4.668;2022-12-07T01:08:44;6.10;99.90
21602;DHT22;10963;50.934;4.668;2022-12-07T01:11:14;6.00;99.90
21602;DHT22;10963;50.934;4.668;2022-12-07T01:13:46;5.90;99.90
21602;DHT22;10963;50.934;4.668;2022-12-07T01:16:16;5.90;99.90
21602;DHT22;10963;50.934;4.668;2022-12-07T01:18:51;5.90;99.90
21602;DHT22;10963;50.934;4.668;2022-12-07T01:21:22;5.90;99.90
21602;DHT22;10963;50.934;4.668;2022-12-07T01:23:51;5.90;99.90
21602;DHT22;10963;50.934;4.668;2022-12-07T01:26:24;5.90;99.90
21602;DHT22;10963;50.934;4.668;2022-12-07T01:28:53;6.00;99.90
21602;DHT22;10963;50.934;4.668;2022-12-07T01:31:22;6.00;99.90
21602;DHT22;10963;50.934;4.668;2022-12-07T01:33:51;6.10;99.90
21602;DHT22;10963;50.934;4.668;2022-12-07T01:36:25;6.20;99.90
21602;DHT22;10963;50.934;4.668;2022-12-07T01:38:54;6.20;99.90
21602;DHT22;10963;50.934;4.668;2022-12-07T01:41:23;6.20;99.90
21602;DHT22;10963;50.934;4.668;2022-12-07T01:46:42;6.20;99.90
21602;DHT22;10963;50.934;4.668;2022-12-07T01:49:12;6.10;99.90
21602;DHT22;10963;50.934;4.668;2022-12-07T01:51:41;6.10;99.90
21602;DHT22;10963;50.934;4.668;2022-12-07T01:54:08;6.30;99.90
21602;DHT22;10963;50.934;4.668;2022-12-07T01:56:40;6.40;99.90
21602;DHT22;10963;50.934;4.668;2022-12-07T01:59:09;6.50;99.90
21602;DHT22;10963;50.934;4.668;2022-12-07T02:01:35;6.40;99.90
21602;DHT22;10963;50.934;4.668;2022-12-07T02:04:04;6.30;99.90
21602;DHT22;10963;50.934;4.668;2022-12-07T02:06:34;6.30;99.90
21602;DHT22;10963;50.934;4.668;2022-12-07T02:09:00;6.30;99.90
21602;DHT22;10963;50.934;4.668;2022-12-07T02:11:26;6.30;99.90
21602;DHT22;10963;50.934;4.668;2022-12-07T02:13:56;6.10;99.90
21602;DHT22;10963;50.934;4.668;2022-12-07T02:19:01;6.10;99.90
21602;DHT22;10963;50.934;4.668;2022-12-07T02:29:36;5.90;99.90
21602;DHT22;10963;50.934;4.668;2022-12-07T02:37:33;5.80;99.90
21602;DHT22;10963;50.934;4.668;2022-12-07T02:40:06;5.80;99.90
21602;DHT22;10963;50.934;4.668;2022-12-07T02:42:44;5.90;99.90
21602;DHT22;10963;50.934;4.668;2022-12-07T02:45:15;6.00;99.90
21602;DHT22;10963;50.934;4.668;2022-12-07T02:47:46;6.10;99.90
21602;DHT22;10963;50.934;4.668;2022-12-07T02:50:21;6.10;99.90
21602;DHT22;10963;50.934;4.668;2022-12-07T02:52:47;6.10;99.90
21602;DHT22;10963;50.934;4.668;2022-12-07T02:55:18;6.10;99.90
21602;DHT22;10963;50.934;4.668;2022-12-07T03:00:27;6.20;99.90
21602;DHT22;10963;50.934;4.668;2022-12-07T03:03:00;6.10;99.90
21602;DHT22;10963;50.934;4.668;2022-12-07T03:08:19;6.00;99.90
21602;DHT22;10963;50.934;4.668;2022-12-07T03:11:03;6.00;99.90
21602;DHT22;10963;50.934;4.668;2022-12-07T03:14:23;6.10;99.90
21602;DHT22;10963;50.934;4.668;2022-12-07T03:17:02;6.10;99.90
21602;DHT22;10963;50.934;4.668;2022-12-07T03:19:31;6.20;99.90
21602;DHT22;10963;50.934;4.668;2022-12-07T03:22:04;6.20;99.90
21602;DHT22;10963;50.934;4.668;2022-12-07T03:24:41;6.20;99.90
21602;DHT22;10963;50.934;4.668;2022-12-07T03:27:13;6.20;99.90
21602;DHT22;10963;50.934;4.668;2022-12-07T03:29:49;6.20;99.90
21602;DHT22;10963;50.934;4.668;2022-12-07T03:32:25;6.20;99.90
21602;DHT22;10963;50.934;4.668;2022-12-07T03:34:58;6.20;99.90
21602;DHT22;10963;50.934;4.668;2022-12-07T03:37:37;6.20;99.90
21602;DHT22;10963;50.934;4.668;2022-12-07T03:40:20;6.30;99.90
21602;DHT22;10963;50.934;4.668;2022-12-07T03:42:48;6.30;99.90
21602;DHT22;10963;50.934;4.668;2022-12-07T03:45:19;6.20;99.90
21602;DHT22;10963;50.934;4.668;2022-12-07T03:50:52;6.30;99.90
21602;DHT22;10963;50.934;4.668;2022-12-07T03:53:37;6.30;99.90
21602;DHT22;10963;50.934;4.668;2022-12-07T03:56:05;6.20;99.90
21602;DHT22;10963;50.934;4.668;2022-12-07T03:58:32;6.20;99.90
21602;DHT22;10963;50.934;4.668;2022-12-07T04:01:01;6.10;99.90
21602;DHT22;10963;50.934;4.668;2022-12-07T04:03:26;6.00;99.90
21602;DHT22;10963;50.934;4.668;2022-12-07T04:05:53;5.90;99.90
21602;DHT22;10963;50.934;4.668;2022-12-07T04:08:21;5.80;99.90
21602;DHT22;10963;50.934;4.668;2022-12-07T04:10:47;5.80;99.90
21602;DHT22;10963;50.934;4.668;2022-12-07T04:13:13;5.70;99.90
21602;DHT22;10963;50.934;4.668;2022-12-07T04:15:40;5.60;99.90
21602;DHT22;10963;50.934;4.668;2022-12-07T04:18:09;5.50;99.90
21602;DHT22;10963;50.934;4.668;2022-12-07T04:20:37;5.40;99.90
21602;DHT22;10963;50.934;4.668;2022-12-07T04:23:02;5.40;99.90
21602;DHT22;10963;50.934;4.668;2022-12-07T04:25:33;5.30;99.90
21602;DHT22;10963;50.934;4.668;2022-12-07T04:27:58;5.30;99.90
21602;DHT22;10963;50.934;4.668;2022-12-07T04:30:24;5.20;99.90
21602;DHT22;10963;50.934;4.668;2022-12-07T04:32:50;5.20;99.90
21602;DHT22;10963;50.934;4.668;2022-12-07T04:35:15;5.10;99.90
21602;DHT22;10963;50.934;4.668;2022-12-07T04:37:44;5.00;99.90
21602;DHT22;10963;50.934;4.668;2022-12-07T04:40:10;4.90;99.90
21602;DHT22;10963;50.934;4.668;2022-12-07T04:42:37;5.00;99.90
21602;DHT22;10963;50.934;4.668;2022-12-07T04:45:06;5.10;99.90
21602;DHT22;10963;50.934;4.668;2022-12-07T04:47:34;5.10;99.90
21602;DHT22;10963;50.934;4.668;2022-12-07T04:49:59;5.10;99.90
21602;DHT22;10963;50.934;4.668;2022-12-07T04:52:28;5.00;99.90
21602;DHT22;10963;50.934;4.668;2022-12-07T04:54:53;4.90;99.90
21602;DHT22;10963;50.934;4.668;2022-12-07T04:57:19;4.90;99.90
21602;DHT22;10963;50.934;4.668;2022-12-07T04:59:45;4.80;99.90
21602;DHT22;10963;50.934;4.668;2022-12-07T05:02:11;4.80;99.90
21602;DHT22;10963;50.934;4.668;2022-12-07T05:04:36;4.80;99.90
21602;DHT22;10963;50.934;4.668;2022-12-07T05:07:04;4.80;99.90
21602;DHT22;10963;50.934;4.668;2022-12-07T05:09:30;4.80;99.90
21602;DHT22;10963;50.934;4.668;2022-12-07T05:11:56;4.80;99.90
21602;DHT22;10963;50.934;4.668;2022-12-07T05:14:23;4.80;99.90
21602;DHT22;10963;50.934;4.668;2022-12-07T05:16:50;4.80;99.90
21602;DHT22;10963;50.934;4.668;2022-12-07T05:19:17;4.90;99.90
21602;DHT22;10963;50.934;4.668;2022-12-07T05:21:43;4.90;99.90
21602;DHT22;10963;50.934;4.668;2022-12-07T05:24:13;5.00;99.90
21602;DHT22;10963;50.934;4.668;2022-12-07T05:26:42;5.20;99.90
21602;DHT22;10963;50.934;4.668;2022-12-07T05:29:10;5.30;99.90
21602;DHT22;10963;50.934;4.668;2022-12-07T05:31:36;5.40;99.90
21602;DHT22;10963;50.934;4.668;2022-12-07T05:34:02;5.50;99.90
21602;DHT22;10963;50.934;4.668;2022-12-07T05:36:32;5.50;99.90
21602;DHT22;10963;50.934;4.668;2022-12-07T05:38:58;5.40;99.90
21602;DHT22;10963;50.934;4.668;2022-12-07T05:41:26;5.50;99.90
21602;DHT22;10963;50.934;4.668;2022-12-07T05:44:11;5.50;99.90
21602;DHT22;10963;50.934;4.668;2022-12-07T05:46:37;5.50;99.90
21602;DHT22;10963;50.934;4.668;2022-12-07T05:49:02;5.50;99.90
21602;DHT22;10963;50.934;4.668;2022-12-07T05:51:28;5.50;99.90
21602;DHT22;10963;50.934;4.668;2022-12-07T05:53:59;5.60;99.90
21602;DHT22;10963;50.934;4.668;2022-12-07T05:56:25;5.50;99.90
21602;DHT22;10963;50.934;4.668;2022-12-07T05:58:54;5.60;99.90
21602;DHT22;10963;50.934;4.668;2022-12-07T06:01:41;5.60;99.90
21602;DHT22;10963;50.934;4.668;2022-12-07T06:04:07;5.60;99.90
21602;DHT22;10963;50.934;4.668;2022-12-07T06:06:33;5.60;99.90
21602;DHT22;10963;50.934;4.668;2022-12-07T06:08:59;5.60;99.90
21602;DHT22;10963;50.934;4.668;2022-12-07T06:11:25;5.60;99.90
21602;DHT22;10963;50.934;4.668;2022-12-07T06:14:12;5.60;99.90
21602;DHT22;10963;50.934;4.668;2022-12-07T06:16:39;5.60;99.90
21602;DHT22;10963;50.934;4.668;2022-12-07T06:19:12;5.60;99.90
21602;DHT22;10963;50.934;4.668;2022-12-07T06:21:38;5.60;99.90
21602;DHT22;10963;50.934;4.668;2022-12-07T06:24:07;5.70;99.90
21602;DHT22;10963;50.934;4.668;2022-12-07T06:26:33;5.60;99.90
21602;DHT22;10963;50.934;4.668;2022-12-07T06:29:04;5.60;99.90
21602;DHT22;10963;50.934;4.668;2022-12-07T06:31:30;5.60;99.90
21602;DHT22;10963;50.934;4.668;2022-12-07T06:34:05;5.50;99.90
21602;DHT22;10963;50.934;4.668;2022-12-07T06:36:32;5.50;99.90
21602;DHT22;10963;50.934;4.668;2022-12-07T06:39:02;5.50;99.90
21602;DHT22;10963;50.934;4.668;2022-12-07T06:41:30;5.50;99.90
21602;DHT22;10963;50.934;4.668;2022-12-07T06:43:56;5.50;99.90
21602;DHT22;10963;50.934;4.668;2022-12-07T06:46:22;5.50;99.90
21602;DHT22;10963;50.934;4.668;2022-12-07T06:48:51;5.40;99.90
21602;DHT22;10963;50.934;4.668;2022-12-07T06:51:22;5.40;99.90
21602;DHT22;10963;50.934;4.668;2022-12-07T06:53:53;5.40;99.90
21602;DHT22;10963;50.934;4.668;2022-12-07T06:56:19;5.40;99.90
21602;DHT22;10963;50.934;4.668;2022-12-07T06:58:50;5.50;99.90
21602;DHT22;10963;50.934;4.668;2022-12-07T07:01:20;5.50;99.90
21602;DHT22;10963;50.934;4.668;2022-12-07T07:03:49;5.60;99.90
21602;DHT22;10963;50.934;4.668;2022-12-07T07:06:15;5.60;99.90
21602;DHT22;10963;50.934;4.668;2022-12-07T07:08:43;5.70;99.90
21602;DHT22;10963;50.934;4.668;2022-12-07T07:11:10;5.90;99.90
21602;DHT22;10963;50.934;4.668;2022-12-07T07:13:36;6.10;99.90
21602;DHT22;10963;50.934;4.668;2022-12-07T07:16:07;6.00;99.90
21602;DHT22;10963;50.934;4.668;2022-12-07T07:18:36;5.90;99.90
21602;DHT22;10963;50.934;4.668;2022-12-07T07:21:02;5.80;99.90
21602;DHT22;10963;50.934;4.668;2022-12-07T07:23:28;5.70;99.90
21602;DHT22;10963;50.934;4.668;2022-12-07T07:25:54;5.70;99.90
21602;DHT22;10963;50.934;4.668;2022-12-07T07:28:22;5.50;99.90
21602;DHT22;10963;50.934;4.668;2022-12-07T07:30:52;5.60;99.90
21602;DHT22;10963;50.934;4.668;2022-12-07T07:33:18;5.60;99.90
21602;DHT22;10963;50.934;4.668;2022-12-07T07:35:46;5.60;99.90
21602;DHT22;10963;50.934;4.668;2022-12-07T07:38:14;5.50;99.90
21602;DHT22;10963;50.934;4.668;2022-12-07T07:40:42;5.40;99.90
21602;DHT22;10963;50.934;4.668;2022-12-07T07:43:10;5.40;99.90
21602;DHT22;10963;50.934;4.668;2022-12-07T07:45:36;5.40;99.90
21602;DHT22;10963;50.934;4.668;2022-12-07T07:48:02;5.30;99.90
21602;DHT22;10963;50.934;4.668;2022-12-07T07:50:28;5.30;99.90
21602;DHT22;10963;50.934;4.668;2022-12-07T07:52:53;5.30;99.90
21602;DHT22;10963;50.934;4.668;2022-12-07T07:55:21;5.30;99.90
21602;DHT22;10963;50.934;4.668;2022-12-07T07:57:47;5.20;99.90
21602;DHT22;10963;50.934;4.668;2022-12-07T08:00:17;5.10;99.90
21602;DHT22;10963;50.934;4.668;2022-12-07T08:02:43;5.10;99.90
21602;DHT22;10963;50.934;4.668;2022-12-07T08:05:13;5.10;99.90
21602;DHT22;10963;50.934;4.668;2022-12-07T08:07:41;5.10;99.90
21602;DHT22;10963;50.934;4.668;2022-12-07T08:10:10;5.10;99.90
21602;DHT22;10963;50.934;4.668;2022-12-07T08:12:41;5.00;99.90
21602;DHT22;10963;50.934;4.668;2022-12-07T08:15:28;5.00;99.90
21602;DHT22;10963;50.934;4.668;2022-12-07T08:17:54;5.00;99.90
21602;DHT22;10963;50.934;4.668;2022-12-07T08:20:20;4.90;99.90
21602;DHT22;10963;50.934;4.668;2022-12-07T08:22:46;5.00;99.90
21602;DHT22;10963;50.934;4.668;2022-12-07T08:25:14;5.10;99.90
21602;DHT22;10963;50.934;4.668;2022-12-07T08:27:40;5.20;99.90
21602;DHT22;10963;50.934;4.668;2022-12-07T08:30:08;5.10;99.90
21602;DHT22;10963;50.934;4.668;2022-12-07T08:32:37;5.10;99.90
21602;DHT22;10963;50.934;4.668;2022-12-07T08:35:06;5.10;99.90
21602;DHT22;10963;50.934;4.668;2022-12-07T08:37:31;5.20;99.90
21602;DHT22;10963;50.934;4.668;2022-12-07T08:39:58;5.20;99.90
21602;DHT22;10963;50.934;4.668;2022-12-07T08:42:23;5.20;99.90
21602;DHT22;10963;50.934;4.668;2022-12-07T08:44:55;5.10;99.90
21602;DHT22;10963;50.934;4.668;2022-12-07T08:47:26;5.10;99.90
21602;DHT22;10963;50.934;4.668;2022-12-07T08:49:55;5.30;99.90
21602;DHT22;10963;50.934;4.668;2022-12-07T08:52:23;5.40;99.90
21602;DHT22;10963;50.934;4.668;2022-12-07T08:54:54;5.70;99.90
21602;DHT22;10963;50.934;4.668;2022-12-07T08:57:22;5.90;99.90
21602;DHT22;10963;50.934;4.668;2022-12-07T08:59:51;6.10;99.90
21602;DHT22;10963;50.934;4.668;2022-12-07T09:02:16;6.30;99.90
21602;DHT22;10963;50.934;4.668;2022-12-07T09:04:42;6.40;99.90
21602;DHT22;10963;50.934;4.668;2022-12-07T09:07:10;6.40;99.90
21602;DHT22;10963;50.934;4.668;2022-12-07T09:09:36;6.40;99.90
21602;DHT22;10963;50.934;4.668;2022-12-07T09:12:02;6.30;99.90
21602;DHT22;10963;50.934;4.668;2022-12-07T09:14:30;6.50;99.90
21602;DHT22;10963;50.934;4.668;2022-12-07T09:17:05;6.60;99.90
21602;DHT22;10963;50.934;4.668;2022-12-07T09:19:31;6.70;99.90
21602;DHT22;10963;50.934;4.668;2022-12-07T09:21:59;6.70;99.90
21602;DHT22;10963;50.934;4.668;2022-12-07T09:24:25;6.70;99.90
21602;DHT22;10963;50.934;4.668;2022-12-07T09:26:51;6.70;99.90
21602;DHT22;10963;50.934;4.668;2022-12-07T09:29:16;6.70;99.90
21602;DHT22;10963;50.934;4.668;2022-12-07T09:31:42;6.60;99.90
21602;DHT22;10963;50.934;4.668;2022-12-07T09:34:08;6.50;99.90
21602;DHT22;10963;50.934;4.668;2022-12-07T09:36:34;6.50;99.90
21602;DHT22;10963;50.934;4.668;2022-12-07T09:39:03;6.50;99.90
21602;DHT22;10963;50.934;4.668;2022-12-07T09:41:30;6.60;99.90
21602;DHT22;10963;50.934;4.668;2022-12-07T09:44:14;6.80;99.90
21602;DHT22;10963;50.934;4.668;2022-12-07T09:46:47;6.80;99.90
21602;DHT22;10963;50.934;4.668;2022-12-07T09:49:21;7.00;99.90
21602;DHT22;10963;50.934;4.668;2022-12-07T09:52:16;7.20;99.90
21602;DHT22;10963;50.934;4.668;2022-12-07T09:54:46;7.20;99.90
21602;DHT22;10963;50.934;4.668;2022-12-07T09:57:27;7.20;99.90
21602;DHT22;10963;50.934;4.668;2022-12-07T09:59:53;7.30;99.90
21602;DHT22;10963;50.934;4.668;2022-12-07T10:02:39;7.40;99.90
21602;DHT22;10963;50.934;4.668;2022-12-07T10:05:14;7.60;99.90
21602;DHT22;10963;50.934;4.668;2022-12-07T10:07:40;7.80;99.90
21602;DHT22;10963;50.934;4.668;2022-12-07T10:10:14;7.90;99.90
21602;DHT22;10963;50.934;4.668;2022-12-07T10:13:05;7.80;99.90
21602;DHT22;10963;50.934;4.668;2022-12-07T10:15:53;7.90;99.90
21602;DHT22;10963;50.934;4.668;2022-12-07T10:18:20;8.10;99.90
21602;DHT22;10963;50.934;4.668;2022-12-07T10:23:39;8.20;99.90
21602;DHT22;10963;50.934;4.668;2022-12-07T10:26:26;8.40;99.90
21602;DHT22;10963;50.934;4.668;2022-12-07T10:28:59;8.40;99.90
21602;DHT22;10963;50.934;4.668;2022-12-07T10:31:26;8.50;99.90
21602;DHT22;10963;50.934;4.668;2022-12-07T10:33:57;8.50;99.90
21602;DHT22;10963;50.934;4.668;2022-12-07T10:36:38;8.60;99.90
21602;DHT22;10963;50.934;4.668;2022-12-07T10:39:15;8.80;99.90
21602;DHT22;10963;50.934;4.668;2022-12-07T10:42:02;9.00;99.90
21602;DHT22;10963;50.934;4.668;2022-12-07T10:44:33;9.00;99.90
21602;DHT22;10963;50.934;4.668;2022-12-07T11:01:08;9.10;99.90
21602;DHT22;10963;50.934;4.668;2022-12-07T11:03:52;8.80;99.90
21602;DHT22;10963;50.934;4.668;2022-12-07T11:06:44;9.10;99.90
21602;DHT22;10963;50.934;4.668;2022-12-07T11:12:05;8.80;99.90
21602;DHT22;10963;50.934;4.668;2022-12-07T11:14:44;8.70;99.90
21602;DHT22;10963;50.934;4.668;2022-12-07T11:17:26;8.70;99.90
21602;DHT22;10963;50.934;4.668;2022-12-07T11:34:39;8.40;99.90
21602;DHT22;10963;50.934;4.668;2022-12-07T11:37:23;8.50;99.90
21602;DHT22;10963;50.934;4.668;2022-12-07T11:39:54;8.50;99.90
21602;DHT22;10963;50.934;4.668;2022-12-07T11:42:25;8.40;99.90
21602;DHT22;10963;50.934;4.668;2022-12-07T11:53:18;8.80;99.90
21602;DHT22;10963;50.934;4.668;2022-12-07T11:58:49;8.90;99.90
21602;DHT22;10963;50.934;4.668;2022-12-07T12:06:32;9.60;99.90
21602;DHT22;10963;50.934;4.668;2022-12-07T12:09:26;9.30;99.90
21602;DHT22;10963;50.934;4.668;2022-12-07T12:20:24;9.00;99.90
21602;DHT22;10963;50.934;4.668;2022-12-07T12:26:28;9.20;99.90
21602;DHT22;10963;50.934;4.668;2022-12-07T12:29:02;9.00;99.90
21602;DHT22;10963;50.934;4.668;2022-12-07T12:34:04;8.80;99.90
21602;DHT22;10963;50.934;4.668;2022-12-07T12:36:49;8.90;99.90
21602;DHT22;10963;50.934;4.668;2022-12-07T12:39:19;8.80;99.90
21602;DHT22;10963;50.934;4.668;2022-12-07T12:46:56;8.80;99.90
21602;DHT22;10963;50.934;4.668;2022-12-07T12:51:59;9.10;99.90
21602;DHT22;10963;50.934;4.668;2022-12-07T12:54:27;9.40;99.90
21602;DHT22;10963;50.934;4.668;2022-12-07T13:02:25;9.80;99.90
21602;DHT22;10963;50.934;4.668;2022-12-07T13:10:35;10.70;99.90
21602;DHT22;10963;50.934;4.668;2022-12-07T13:15:49;10.50;99.90
21602;DHT22;10963;50.934;4.668;2022-12-07T13:29:17;9.80;99.90
21602;DHT22;10963;50.934;4.668;2022-12-07T13:34:38;9.60;99.90
21602;DHT22;10963;50.934;4.668;2022-12-07T13:37:26;9.70;99.90
21602;DHT22;10963;50.934;4.668;2022-12-07T13:40:12;9.80;99.90
21602;DHT22;10963;50.934;4.668;2022-12-07T13:42:41;9.50;99.90
21602;DHT22;10963;50.934;4.668;2022-12-07T13:45:29;9.60;99.90
21602;DHT22;10963;50.934;4.668;2022-12-07T13:48:24;9.60;99.90
21602;DHT22;10963;50.934;4.668;2022-12-07T13:50:59;9.50;99.90
21602;DHT22;10963;50.934;4.668;2022-12-07T13:53:26;9.40;99.90
21602;DHT22;10963;50.934;4.668;2022-12-07T13:55:56;9.40;99.90
21602;DHT22;10963;50.934;4.668;2022-12-07T13:58:29;9.50;99.90
21602;DHT22;10963;50.934;4.668;2022-12-07T14:00:58;9.20;99.90
21602;DHT22;10963;50.934;4.668;2022-12-07T14:03:33;9.40;99.90
21602;DHT22;10963;50.934;4.668;2022-12-07T14:08:34;9.40;99.90
21602;DHT22;10963;50.934;4.668;2022-12-07T14:11:00;9.30;99.90
21602;DHT22;10963;50.934;4.668;2022-12-07T14:15:55;9.30;99.90
21602;DHT22;10963;50.934;4.668;2022-12-07T14:18:28;9.20;99.90
21602;DHT22;10963;50.934;4.668;2022-12-07T14:23:32;9.00;99.90
21602;DHT22;10963;50.934;4.668;2022-12-07T14:26:21;8.80;99.90
21602;DHT22;10963;50.934;4.668;2022-12-07T14:28:50;8.90;99.90
21602;DHT22;10963;50.934;4.668;2022-12-07T14:31:18;8.90;99.90
21602;DHT22;10963;50.934;4.668;2022-12-07T14:33:47;8.40;99.90
21602;DHT22;10963;50.934;4.668;2022-12-07T14:36:14;7.90;99.90
21602;DHT22;10963;50.934;4.668;2022-12-07T14:38:43;7.70;99.90
21602;DHT22;10963;50.934;4.668;2022-12-07T14:41:19;7.50;99.90
21602;DHT22;10963;50.934;4.668;2022-12-07T14:44:11;7.30;99.90
21602;DHT22;10963;50.934;4.668;2022-12-07T14:46:37;7.20;99.90
21602;DHT22;10963;50.934;4.668;2022-12-07T14:49:05;7.50;99.90
21602;DHT22;10963;50.934;4.668;2022-12-07T14:51:33;7.60;99.90
21602;DHT22;10963;50.934;4.668;2022-12-07T14:54:05;7.40;99.90
21602;DHT22;10963;50.934;4.668;2022-12-07T14:56:31;7.40;99.90
21602;DHT22;10963;50.934;4.668;2022-12-07T14:58:57;7.50;99.90
21602;DHT22;10963;50.934;4.668;2022-12-07T15:01:23;7.50;99.90
21602;DHT22;10963;50.934;4.668;2022-12-07T15:03:51;7.50;99.90
21602;DHT22;10963;50.934;4.668;2022-12-07T15:06:19;7.50;99.90
21602;DHT22;10963;50.934;4.668;2022-12-07T15:08:47;7.50;99.90
21602;DHT22;10963;50.934;4.668;2022-12-07T15:11:17;7.50;99.90
21602;DHT22;10963;50.934;4.668;2022-12-07T15:13:43;7.60;99.90
21602;DHT22;10963;50.934;4.668;2022-12-07T15:16:27;7.40;99.90
21602;DHT22;10963;50.934;4.668;2022-12-07T15:18:53;7.30;99.90
21602;DHT22;10963;50.934;4.668;2022-12-07T15:21:19;7.30;99.90
21602;DHT22;10963;50.934;4.668;2022-12-07T15:23:46;7.20;99.90
21602;DHT22;10963;50.934;4.668;2022-12-07T15:26:15;7.10;99.90
21602;DHT22;10963;50.934;4.668;2022-12-07T15:28:43;7.00;99.90
21602;DHT22;10963;50.934;4.668;2022-12-07T15:31:16;7.00;99.90
21602;DHT22;10963;50.934;4.668;2022-12-07T15:33:44;7.00;99.90
21602;DHT22;10963;50.934;4.668;2022-12-07T15:36:19;7.00;99.90
21602;DHT22;10963;50.934;4.668;2022-12-07T15:38:46;7.00;99.90
21602;DHT22;10963;50.934;4.668;2022-12-07T15:41:11;6.90;99.90
21602;DHT22;10963;50.934;4.668;2022-12-07T15:43:37;6.80;99.90
21602;DHT22;10963;50.934;4.668;2022-12-07T15:46:21;6.90;99.90
21602;DHT22;10963;50.934;4.668;2022-12-07T15:48:47;6.90;99.90
21602;DHT22;10963;50.934;4.668;2022-12-07T15:51:12;6.80;99.90
21602;DHT22;10963;50.934;4.668;2022-12-07T15:53:38;6.80;99.90
21602;DHT22;10963;50.934;4.668;2022-12-07T15:56:07;6.80;99.90
21602;DHT22;10963;50.934;4.668;2022-12-07T15:58:34;6.80;99.90
21602;DHT22;10963;50.934;4.668;2022-12-07T16:01:00;6.80;99.90
21602;DHT22;10963;50.934;4.668;2022-12-07T16:03:29;6.80;99.90
21602;DHT22;10963;50.934;4.668;2022-12-07T16:05:57;6.90;99.90
21602;DHT22;10963;50.934;4.668;2022-12-07T16:08:28;6.90;99.90
21602;DHT22;10963;50.934;4.668;2022-12-07T16:10:54;6.90;99.90
21602;DHT22;10963;50.934;4.668;2022-12-07T16:13:21;6.90;99.90
21602;DHT22;10963;50.934;4.668;2022-12-07T16:15:47;6.90;99.90
21602;DHT22;10963;50.934;4.668;2022-12-07T16:18:17;6.90;99.90
21602;DHT22;10963;50.934;4.668;2022-12-07T16:20:44;6.80;99.90
21602;DHT22;10963;50.934;4.668;2022-12-07T16:23:15;6.80;99.90
21602;DHT22;10963;50.934;4.668;2022-12-07T16:25:41;7.00;99.90
21602;DHT22;10963;50.934;4.668;2022-12-07T16:28:10;7.00;99.90
21602;DHT22;10963;50.934;4.668;2022-12-07T16:30:36;7.00;99.90
21602;DHT22;10963;50.934;4.668;2022-12-07T16:33:02;6.90;99.90
21602;DHT22;10963;50.934;4.668;2022-12-07T16:35:28;6.90;99.90
21602;DHT22;10963;50.934;4.668;2022-12-07T16:37:54;6.90;99.90
21602;DHT22;10963;50.934;4.668;2022-12-07T16:40:22;6.90;99.90
21602;DHT22;10963;50.934;4.668;2022-12-07T16:42:51;6.90;99.90
21602;DHT22;10963;50.934;4.668;2022-12-07T16:45:19;6.90;99.90
21602;DHT22;10963;50.934;4.668;2022-12-07T16:47:45;6.80;99.90
21602;DHT22;10963;50.934;4.668;2022-12-07T16:50:11;6.90;99.90
21602;DHT22;10963;50.934;4.668;2022-12-07T16:52:37;6.90;99.90
21602;DHT22;10963;50.934;4.668;2022-12-07T16:55:03;7.00;99.90
21602;DHT22;10963;50.934;4.668;2022-12-07T16:57:30;7.00;99.90
21602;DHT22;10963;50.934;4.668;2022-12-07T16:59:56;7.00;99.90
21602;DHT22;10963;50.934;4.668;2022-12-07T17:02:25;6.90;99.90
21602;DHT22;10963;50.934;4.668;2022-12-07T17:04:51;7.00;99.90
21602;DHT22;10963;50.934;4.668;2022-12-07T17:07:17;7.10;99.90
21602;DHT22;10963;50.934;4.668;2022-12-07T17:09:45;7.00;99.90
21602;DHT22;10963;50.934;4.668;2022-12-07T17:12:11;7.00;99.90
21602;DHT22;10963;50.934;4.668;2022-12-07T17:14:39;7.00;99.90
21602;DHT22;10963;50.934;4.668;2022-12-07T17:17:24;7.10;99.90
21602;DHT22;10963;50.934;4.668;2022-12-07T17:19:51;7.00;99.90
21602;DHT22;10963;50.934;4.668;2022-12-07T17:22:20;7.20;99.90
21602;DHT22;10963;50.934;4.668;2022-12-07T17:24:46;7.20;99.90
21602;DHT22;10963;50.934;4.668;2022-12-07T17:27:11;7.20;99.90
21602;DHT22;10963;50.934;4.668;2022-12-07T17:29:37;7.30;99.90
21602;DHT22;10963;50.934;4.668;2022-12-07T17:32:03;7.50;99.90
21602;DHT22;10963;50.934;4.668;2022-12-07T17:34:29;7.30;99.90
21602;DHT22;10963;50.934;4.668;2022-12-07T17:37:00;7.10;99.90
21602;DHT22;10963;50.934;4.668;2022-12-07T17:39:28;7.00;99.90
21602;DHT22;10963;50.934;4.668;2022-12-07T17:41:54;7.00;99.90
21602;DHT22;10963;50.934;4.668;2022-12-07T17:44:38;7.00;99.90
21602;DHT22;10963;50.934;4.668;2022-12-07T17:47:04;7.10;99.90
21602;DHT22;10963;50.934;4.668;2022-12-07T17:49:33;7.00;99.90
21602;DHT22;10963;50.934;4.668;2022-12-07T17:51:59;7.00;99.90
21602;DHT22;10963;50.934;4.668;2022-12-07T17:54:43;6.90;99.90
21602;DHT22;10963;50.934;4.668;2022-12-07T17:57:08;7.00;99.90
21602;DHT22;10963;50.934;4.668;2022-12-07T17:59:35;7.00;99.90
21602;DHT22;10963;50.934;4.668;2022-12-07T18:02:01;7.00;99.90
21602;DHT22;10963;50.934;4.668;2022-12-07T18:04:30;7.00;99.90
21602;DHT22;10963;50.934;4.668;2022-12-07T18:06:55;7.00;99.90
21602;DHT22;10963;50.934;4.668;2022-12-07T18:09:21;7.00;99.90
21602;DHT22;10963;50.934;4.668;2022-12-07T18:11:50;7.10;99.90
21602;DHT22;10963;50.934;4.668;2022-12-07T18:14:16;7.10;99.90
21602;DHT22;10963;50.934;4.668;2022-12-07T18:16:42;6.90;99.90
21602;DHT22;10963;50.934;4.668;2022-12-07T18:19:09;6.90;99.90